Time;durP1;ratioP1;P1;durP2;ratioP2;P2;SDS_P1;SDS_P2;PMS_P1;PMS_P2;Temp;Humidity;BMP_temperature;BMP_pressure;BME280_temperature;BME280_humidity;BME280_pressure;Samples;Min_cycle;Max_cycle;Signal;HPM_P1;HPM_P2
2021/12/02 00:01:19;;;;;;;13.10;7.22;;;;;;;2.29;53.88;99494.71;1799100;79;20987;-67
2021/12/02 00:03:47;;;;;;;10.95;6.47;;;;;;;2.34;53.72;99491.69;1799177;79;21019;-68
2021/12/02 00:06:16;;;;;;;11.73;7.12;;;;;;;2.38;53.59;99488.08;1828624;78;21007;-68
2021/12/02 00:08:43;;;;;;;11.33;5.85;;;;;;;2.40;53.44;99480.72;1799372;78;21014;-68
2021/12/02 00:11:09;;;;;;;9.38;5.83;;;;;;;2.45;53.29;99470.83;1799562;79;21516;-68
2021/12/02 00:21:21;;;;;;;9.90;5.60;;;;;;;2.53;52.69;99460.75;1799311;78;21539;-68
2021/12/02 00:24:06;;;;;;;10.55;6.30;;;;;;;2.53;52.60;99459.92;1830016;77;21123;-68
2021/12/02 00:26:38;;;;;;;8.55;5.17;;;;;;;2.58;52.53;99447.66;1829771;78;21038;-67
2021/12/02 00:29:08;;;;;;;9.30;5.20;;;;;;;2.61;52.33;99457.47;1804585;78;20968;-68
2021/12/02 00:31:38;;;;;;;8.83;4.90;;;;;;;2.61;52.18;99459.59;1799374;79;21011;-67
2021/12/02 00:34:07;;;;;;;9.88;4.90;;;;;;;2.63;52.08;99452.75;1799464;79;21643;-67
2021/12/02 00:36:38;;;;;;;7.67;4.35;;;;;;;2.67;51.81;99459.19;1799410;79;21102;-68
2021/12/02 00:39:13;;;;;;;9.10;4.90;;;;;;;2.71;51.67;99460.31;1829686;78;21466;-68
2021/12/02 00:41:40;;;;;;;7.95;4.17;;;;;;;2.76;51.52;99452.49;1829956;77;20916;-68
2021/12/02 00:44:07;;;;;;;7.08;4.30;;;;;;;2.82;51.33;99441.81;1799126;79;20967;-68
2021/12/02 00:46:35;;;;;;;7.72;4.12;;;;;;;2.89;51.13;99436.41;1830009;78;20928;-68
2021/12/02 00:49:06;;;;;;;6.78;4.00;;;;;;;2.93;50.87;99432.29;1830020;77;21014;-69
2021/12/02 00:51:35;;;;;;;6.25;3.37;;;;;;;2.98;50.65;99425.78;1772649;79;21643;-69
2021/12/02 00:54:05;;;;;;;5.70;3.35;;;;;;;2.98;50.30;99438.97;1829820;78;20936;-67
2021/12/02 00:56:34;;;;;;;6.92;3.35;;;;;;;2.99;50.03;99441.08;1799679;79;20967;-68
2021/12/02 00:59:01;;;;;;;6.12;3.20;;;;;;;3.01;49.87;99439.02;1830249;77;20982;-68
2021/12/02 01:01:34;;;;;;;6.33;3.30;;;;;;;3.03;49.76;99428.53;1799311;79;21791;-68
2021/12/02 01:04:01;;;;;;;6.78;3.30;;;;;;;3.01;49.69;99414.77;1830130;77;21042;-67
2021/12/02 01:06:27;;;;;;;5.53;2.90;;;;;;;3.04;49.62;99408.22;1799297;79;20994;-67
2021/12/02 01:08:54;;;;;;;5.42;2.92;;;;;;;3.06;49.49;99398.24;1829956;78;21034;-68
2021/12/02 01:11:21;;;;;;;5.15;2.92;;;;;;;3.08;49.47;99386.13;1799388;79;21496;-68
2021/12/02 01:13:48;;;;;;;6.10;3.35;;;;;;;3.12;49.43;99380.65;1830267;78;21133;-68
2021/12/02 01:16:15;;;;;;;4.80;2.80;;;;;;;3.17;49.32;99379.44;1830097;77;20984;-67
2021/12/02 01:18:42;;;;;;;4.95;3.17;;;;;;;3.22;49.42;99378.98;1799671;79;20959;-68
2021/12/02 01:21:14;;;;;;;4.70;2.65;;;;;;;3.27;49.45;99373.02;1830027;77;20959;-68
2021/12/02 01:23:41;;;;;;;5.75;3.00;;;;;;;3.31;49.52;99371.49;1799134;79;20966;-68
2021/12/02 01:26:08;;;;;;;6.12;3.60;;;;;;;3.32;49.74;99374.41;1830100;78;21447;-68
2021/12/02 01:28:37;;;;;;;5.85;3.40;;;;;;;3.37;49.83;99361.83;1799583;79;21374;-68
2021/12/02 01:31:03;;;;;;;6.25;3.83;;;;;;;3.39;50.02;99351.32;1829864;77;21537;-67
2021/12/02 01:33:30;;;;;;;7.62;4.22;;;;;;;3.45;50.19;99338.45;1799926;79;21508;-67
2021/12/02 01:36:00;;;;;;;7.45;4.30;;;;;;;3.49;50.38;99339.60;1830134;77;20920;-68
2021/12/02 01:38:28;;;;;;;7.53;4.80;;;;;;;3.53;50.51;99338.08;1799213;79;21109;-68
2021/12/02 01:40:56;;;;;;;7.65;4.62;;;;;;;3.58;50.69;99332.06;1829867;78;20976;-67
2021/12/02 01:43:44;;;;;;;8.13;5.08;;;;;;;3.60;50.82;99327.34;1829816;78;21030;-68
2021/12/02 01:46:13;;;;;;;7.15;4.65;;;;;;;3.60;51.01;99327.88;1799453;79;21101;-67
2021/12/02 01:48:41;;;;;;;7.53;4.75;;;;;;;3.64;51.13;99338.23;1829968;78;21014;-67
2021/12/02 01:51:12;;;;;;;7.47;4.78;;;;;;;3.67;51.27;99333.27;1829779;78;21094;-68
2021/12/02 01:53:41;;;;;;;8.20;5.22;;;;;;;3.71;51.35;99334.38;1830060;77;21074;-67
2021/12/02 01:56:12;;;;;;;7.65;4.75;;;;;;;3.72;51.46;99339.95;1829972;78;20995;-68
2021/12/02 01:58:49;;;;;;;7.28;5.20;;;;;;;3.75;51.53;99334.19;1830213;77;21085;-68
2021/12/02 02:01:24;;;;;;;9.83;5.40;;;;;;;3.78;51.64;99323.64;1829939;77;20928;-68
2021/12/02 02:03:53;;;;;;;7.40;5.35;;;;;;;3.78;51.76;99320.20;1829772;77;21121;-67
2021/12/02 02:06:30;;;;;;;9.25;5.62;;;;;;;3.80;51.79;99322.89;1799477;79;20998;-68
2021/12/02 02:08:59;;;;;;;8.83;5.67;;;;;;;3.83;51.93;99322.93;1829766;77;21019;-68
2021/12/02 02:11:29;;;;;;;9.63;5.60;;;;;;;3.80;51.96;99311.00;1829813;77;20975;-67
2021/12/02 02:13:57;;;;;;;11.00;7.10;;;;;;;3.80;52.09;99311.00;1799387;79;20952;-67
2021/12/02 02:16:24;;;;;;;10.35;7.17;;;;;;;3.82;52.18;99306.78;1830082;77;21153;-67
2021/12/02 02:18:52;;;;;;;9.95;7.15;;;;;;;3.80;52.25;99308.89;1829699;77;20979;-67
2021/12/02 02:21:23;;;;;;;9.23;6.40;;;;;;;3.77;52.35;99314.13;1799238;79;21005;-68
2021/12/02 02:23:52;;;;;;;10.20;6.75;;;;;;;3.72;52.51;99317.50;1829965;77;20948;-66
2021/12/02 02:26:24;;;;;;;12.35;6.30;;;;;;;3.73;52.59;99316.98;1830022;77;21053;-68
2021/12/02 02:28:47;;;;;;;8.40;6.05;;;;;;;3.71;52.63;99315.89;1829299;77;21140;-67
2021/12/02 02:31:14;;;;;;;8.88;6.03;;;;;;;3.70;52.70;99312.98;1830043;77;21501;-68
2021/12/02 02:33:41;;;;;;;9.60;5.72;;;;;;;3.74;52.70;99304.84;1829868;77;21148;-68
2021/12/02 02:36:08;;;;;;;11.35;6.17;;;;;;;3.74;52.66;99309.33;1830144;78;21389;-67
2021/12/02 02:38:35;;;;;;;10.32;6.40;;;;;;;3.75;52.67;99311.74;1799195;79;21482;-66
2021/12/02 02:41:04;;;;;;;10.93;6.60;;;;;;;3.77;52.71;99315.45;1830484;77;21736;-68
2021/12/02 02:43:33;;;;;;;9.08;5.90;;;;;;;3.80;52.68;99303.08;1799302;79;20928;-67
2021/12/02 02:46:01;;;;;;;10.03;6.42;;;;;;;3.83;52.66;99304.44;1830183;78;21046;-67
2021/12/02 02:48:27;;;;;;;10.60;6.70;;;;;;;3.82;52.68;99303.65;1799297;79;21049;-66
2021/12/02 02:50:54;;;;;;;9.38;6.25;;;;;;;3.81;52.57;99298.06;1816392;78;21027;-66
2021/12/02 02:53:22;;;;;;;9.43;6.30;;;;;;;3.84;52.49;99300.22;1830104;77;21443;-67
2021/12/02 02:56:09;;;;;;;9.15;6.47;;;;;;;3.83;52.51;99290.71;1830324;77;21042;-68
2021/12/02 02:58:48;;;;;;;8.45;6.05;;;;;;;3.83;52.54;99292.03;1828238;77;20998;-66
2021/12/02 03:06:44;;;;;;;9.00;6.30;;;;;;;3.90;52.41;99292.65;1830251;78;21118;-68
2021/12/02 03:09:14;;;;;;;9.48;6.60;;;;;;;3.91;52.38;99288.95;1798287;79;20953;-67
2021/12/02 03:11:43;;;;;;;10.50;6.50;;;;;;;3.93;52.38;99294.02;1829867;77;20999;-67
2021/12/02 03:14:13;;;;;;;9.83;6.67;;;;;;;3.94;52.42;99293.75;1830043;77;21039;-68
2021/12/02 03:16:47;;;;;;;;;;;;;;;3.97;52.39;99289.30;1831831;78;21004;-68
2021/12/02 03:19:13;;;;;;;9.93;6.25;;;;;;;3.97;52.40;99279.27;1796986;79;21109;-68
2021/12/02 03:21:40;;;;;;;10.32;6.55;;;;;;;3.98;52.39;99273.75;1797566;79;21094;-66
2021/12/02 03:24:06;;;;;;;8.73;5.95;;;;;;;4.02;52.41;99275.38;1824027;78;20983;-69
2021/12/02 03:26:35;;;;;;;9.20;6.50;;;;;;;4.02;52.39;99264.81;1816580;78;20956;-68
2021/12/02 03:29:02;;;;;;;10.38;7.17;;;;;;;4.04;52.41;99267.98;1828963;78;20991;-65
2021/12/02 03:31:29;;;;;;;9.68;6.75;;;;;;;4.07;52.47;99266.70;1829695;78;21145;-67
2021/12/02 03:33:56;;;;;;;10.00;7.00;;;;;;;4.07;52.41;99263.53;1830103;78;20999;-67
2021/12/02 03:36:23;;;;;;;10.43;7.03;;;;;;;4.06;52.41;99262.47;1829953;77;20948;-68
2021/12/02 03:38:50;;;;;;;9.28;6.80;;;;;;;4.08;52.43;99241.88;1799132;78;20958;-67
2021/12/02 03:41:16;;;;;;;9.93;6.78;;;;;;;4.12;52.40;99253.56;1830316;78;20923;-68
2021/12/02 03:43:45;;;;;;;9.73;6.78;;;;;;;4.14;52.42;99257.54;1830063;78;21038;-67
2021/12/02 03:46:15;;;;;;;11.12;7.00;;;;;;;4.17;52.42;99245.68;1789330;79;21431;-67
2021/12/02 03:48:42;;;;;;;9.33;6.83;;;;;;;4.18;52.42;99241.48;1781575;79;21074;-67
2021/12/02 03:51:10;;;;;;;10.35;7.05;;;;;;;4.19;52.43;99237.00;1783566;79;21521;-68
2021/12/02 03:53:37;;;;;;;9.83;6.70;;;;;;;4.23;52.46;99238.09;1783346;79;21466;-67
2021/12/02 03:56:06;;;;;;;11.30;7.40;;;;;;;4.22;52.44;99234.66;1814308;78;21492;-66
2021/12/02 03:58:35;;;;;;;10.90;7.10;;;;;;;4.21;52.58;99220.35;1811986;78;21353;-67
2021/12/02 04:01:01;;;;;;;10.68;7.10;;;;;;;4.24;52.61;99223.82;1774092;79;21199;-67
2021/12/02 04:03:28;;;;;;;10.32;7.47;;;;;;;4.26;52.60;99220.42;1826217;78;21047;-67
2021/12/02 04:05:55;;;;;;;10.82;6.60;;;;;;;4.27;52.68;99210.11;1830189;78;20999;-66
2021/12/02 04:08:29;;;;;;;10.28;7.50;;;;;;;4.28;52.78;99207.77;1797119;79;21222;-67
2021/12/02 04:10:58;;;;;;;10.05;7.30;;;;;;;4.29;52.81;99196.14;1795928;79;21050;-68
2021/12/02 04:13:24;;;;;;;10.75;7.22;;;;;;;4.31;52.75;99203.30;1784958;79;21031;-68
2021/12/02 04:15:54;;;;;;;9.85;7.12;;;;;;;4.32;52.83;99199.61;1813846;78;21028;-68
2021/12/02 04:18:19;;;;;;;7.83;5.03;;;;;;;4.33;52.87;99189.83;1808260;78;20989;-68
2021/12/02 04:20:46;;;;;;;10.18;7.70;;;;;;;4.33;52.97;99186.66;1813048;77;21086;-66
2021/12/02 04:23:12;;;;;;;10.63;7.60;;;;;;;4.37;52.96;99194.36;1780097;79;21589;-66
2021/12/02 04:25:39;;;;;;;10.05;7.30;;;;;;;4.40;52.89;99201.79;1781180;79;20967;-69
2021/12/02 04:28:06;;;;;;;11.45;7.70;;;;;;;4.43;52.84;99196.53;1812916;77;20999;-67
2021/12/02 04:30:34;;;;;;;10.50;7.47;;;;;;;4.44;52.82;99188.37;1815191;78;21042;-67
2021/12/02 04:33:01;;;;;;;11.03;7.35;;;;;;;4.44;52.88;99184.41;1779901;79;21122;-68
2021/12/02 04:35:28;;;;;;;10.85;7.65;;;;;;;4.53;52.75;99186.58;1783648;79;21099;-68
2021/12/02 04:37:55;;;;;;;11.18;8.20;;;;;;;4.55;52.55;99185.81;1810949;78;20972;-68
2021/12/02 04:40:23;;;;;;;10.48;7.65;;;;;;;4.54;52.59;99176.27;1813075;78;21554;-67
2021/12/02 04:42:50;;;;;;;10.03;7.20;;;;;;;4.54;52.55;99177.09;1812351;78;21030;-68
2021/12/02 04:45:17;;;;;;;11.65;8.18;;;;;;;4.57;52.52;99176.56;1780418;79;21166;-67
2021/12/02 04:47:44;;;;;;;14.58;7.95;;;;;;;4.55;52.48;99170.75;1810661;78;21478;-68
2021/12/02 04:50:11;;;;;;;10.63;8.00;;;;;;;4.55;52.54;99156.73;1815023;78;20973;-68
2021/12/02 04:52:38;;;;;;;11.15;8.00;;;;;;;4.54;52.63;99160.41;1775925;79;20985;-68
2021/12/02 04:55:07;;;;;;;11.97;7.95;;;;;;;4.61;52.60;99163.66;1813734;78;21005;-67
2021/12/02 04:57:35;;;;;;;10.90;8.10;;;;;;;4.63;52.47;99164.98;1811875;77;21005;-67
2021/12/02 05:00:05;;;;;;;9.68;7.22;;;;;;;4.65;52.38;99164.75;1814122;77;21046;-67
2021/12/02 05:02:31;;;;;;;12.35;8.45;;;;;;;4.64;52.39;99173.71;1814870;78;21071;-68
2021/12/02 05:04:58;;;;;;;11.97;8.15;;;;;;;4.72;52.26;99172.47;1763658;81;21567;-68
2021/12/02 05:07:24;;;;;;;11.10;7.95;;;;;;;4.73;52.25;99166.92;1809142;78;21044;-70
2021/12/02 05:09:53;;;;;;;11.93;8.45;;;;;;;4.77;52.21;99179.93;1797415;79;21168;-67
2021/12/02 05:12:21;;;;;;;10.78;8.18;;;;;;;4.80;52.17;99169.34;1796905;79;21009;-67
2021/12/02 05:14:48;;;;;;;12.53;8.20;;;;;;;4.82;52.21;99152.18;1797477;79;20993;-68
2021/12/02 05:17:15;;;;;;;11.28;8.58;;;;;;;4.86;52.19;99152.47;1797473;79;21075;-67
2021/12/02 05:19:42;;;;;;;11.20;8.48;;;;;;;4.82;52.22;99148.21;1767861;81;21009;-67
2021/12/02 05:22:08;;;;;;;10.98;7.92;;;;;;;4.81;52.34;99157.20;1797282;78;21137;-68
2021/12/02 05:24:35;;;;;;;10.75;8.40;;;;;;;4.81;52.39;99152.45;1797220;79;21483;-68
2021/12/02 05:27:04;;;;;;;10.75;8.10;;;;;;;4.86;52.41;99161.20;1767756;81;21103;-69
2021/12/02 05:29:31;;;;;;;12.88;8.65;;;;;;;4.88;52.38;99135.30;1767716;81;21017;-68
2021/12/02 05:31:59;;;;;;;12.20;9.23;;;;;;;4.88;52.40;99140.59;1767655;81;21079;-68
2021/12/02 05:34:27;;;;;;;12.15;8.98;;;;;;;4.88;52.51;99132.66;1767613;81;21379;-67
2021/12/02 05:36:54;;;;;;;11.57;8.55;;;;;;;4.89;52.55;99142.17;1793330;79;21034;-68
2021/12/02 05:39:21;;;;;;;11.55;8.88;;;;;;;4.88;52.67;99137.94;1799298;79;21039;-69
2021/12/02 05:41:47;;;;;;;11.03;8.75;;;;;;;4.91;52.67;99145.91;1830000;78;21406;-67
2021/12/02 05:44:14;;;;;;;12.10;8.60;;;;;;;4.93;52.67;99148.55;1829856;78;20979;-68
2021/12/02 05:46:41;;;;;;;11.00;8.48;;;;;;;4.93;52.67;99147.22;1799421;79;21177;-69
2021/12/02 05:49:08;;;;;;;12.95;9.30;;;;;;;4.93;52.67;99145.90;1799320;79;21011;-69
2021/12/02 05:51:34;;;;;;;11.63;8.93;;;;;;;4.94;52.71;99158.09;1829886;77;21200;-68
2021/12/02 05:54:01;;;;;;;12.25;9.10;;;;;;;4.98;52.75;99156.27;1830083;77;21410;-67
2021/12/02 05:56:28;;;;;;;12.47;8.43;;;;;;;5.01;52.82;99161.05;1799318;79;21018;-68
2021/12/02 05:58:54;;;;;;;12.03;8.55;;;;;;;5.02;52.78;99166.61;1830238;77;21130;-68
2021/12/02 06:01:22;;;;;;;12.70;9.50;;;;;;;5.03;52.77;99174.28;1829964;77;20962;-68
2021/12/02 06:03:49;;;;;;;11.20;8.63;;;;;;;5.05;52.79;99170.86;1816319;78;21058;-68
2021/12/02 06:06:17;;;;;;;12.53;9.53;;;;;;;5.06;52.81;99162.39;1829848;78;21490;-68
2021/12/02 06:08:44;;;;;;;10.90;8.63;;;;;;;5.07;52.83;99169.30;1829813;78;21050;-68
2021/12/02 06:11:12;;;;;;;11.28;8.78;;;;;;;5.09;52.85;99160.03;1829999;77;20924;-69
2021/12/02 06:13:41;;;;;;;12.80;9.13;;;;;;;5.12;52.86;99167.47;1830094;77;21023;-67
2021/12/02 06:16:08;;;;;;;10.82;8.20;;;;;;;5.14;52.81;99164.05;1829733;77;20963;-68
2021/12/02 06:18:35;;;;;;;11.30;8.78;;;;;;;5.15;52.80;99157.70;1830000;78;21027;-67
2021/12/02 06:21:01;;;;;;;12.35;9.10;;;;;;;5.16;52.80;99159.28;1799794;78;21081;-68
2021/12/02 06:23:28;;;;;;;11.20;8.55;;;;;;;5.19;52.83;99159.30;1799251;78;21978;-69
2021/12/02 06:25:55;;;;;;;13.00;9.00;;;;;;;5.21;52.85;99161.18;1828263;78;21011;-68
2021/12/02 06:28:21;;;;;;;12.00;8.85;;;;;;;5.23;52.90;99155.12;1830172;78;20940;-68
2021/12/02 06:30:49;;;;;;;10.82;8.45;;;;;;;5.30;52.87;99154.89;1799582;79;21033;-67
2021/12/02 06:33:17;;;;;;;11.63;8.40;;;;;;;5.32;52.80;99159.38;1799034;79;21034;-68
2021/12/02 06:35:43;;;;;;;11.55;8.70;;;;;;;5.35;52.82;99157.55;1799543;79;21156;-70
2021/12/02 06:38:10;;;;;;;12.03;8.23;;;;;;;5.39;52.75;99160.73;1829734;78;20971;-70
2021/12/02 06:40:39;;;;;;;13.15;9.65;;;;;;;5.43;52.76;99158.91;1830239;78;20952;-68
2021/12/02 06:43:05;;;;;;;11.53;8.40;;;;;;;5.48;52.75;99160.27;1798806;79;20994;-69
2021/12/02 06:45:32;;;;;;;11.70;8.63;;;;;;;5.50;52.72;99156.84;1830469;77;20993;-68
2021/12/02 06:48:00;;;;;;;11.30;8.58;;;;;;;5.52;52.75;99158.16;1829796;78;21181;-69
2021/12/02 06:50:28;;;;;;;11.35;8.30;;;;;;;5.60;52.68;99161.66;1799593;79;21096;-70
2021/12/02 06:52:54;;;;;;;11.25;7.90;;;;;;;5.65;52.68;99163.52;1829734;77;21057;-69
2021/12/02 06:55:21;;;;;;;11.68;8.48;;;;;;;5.69;52.56;99153.98;1799493;78;21021;-69
2021/12/02 06:57:49;;;;;;;12.15;8.80;;;;;;;5.77;52.41;99146.88;1829856;77;20988;-68
2021/12/02 07:00:18;;;;;;;11.03;8.20;;;;;;;5.80;52.38;99145.04;1799565;78;21141;-69
2021/12/02 07:02:45;;;;;;;11.20;8.10;;;;;;;5.85;52.36;99144.25;1829897;78;20991;-69
2021/12/02 07:05:14;;;;;;;11.93;8.55;;;;;;;5.89;52.42;99145.34;1799515;78;20950;-69
2021/12/02 07:07:40;;;;;;;10.20;7.58;;;;;;;5.93;52.29;99139.02;1799198;78;21065;-69
2021/12/02 07:10:12;;;;;;;10.98;8.20;;;;;;;5.94;52.31;99142.72;1830308;78;20944;-69
2021/12/02 07:12:41;;;;;;;11.08;8.30;;;;;;;5.97;52.22;99142.73;1799524;78;21961;-69
2021/12/02 07:15:24;;;;;;;10.48;7.75;;;;;;;6.03;52.12;99147.00;1830154;77;20983;-69
2021/12/02 07:17:46;;;;;;;10.03;7.10;;;;;;;6.06;52.08;99146.48;1828591;77;21030;-69
2021/12/02 07:20:14;;;;;;;11.20;7.95;;;;;;;6.06;52.03;99151.25;1799607;78;21006;-68
2021/12/02 07:22:40;;;;;;;12.30;8.18;;;;;;;6.14;52.00;99135.88;1829662;78;21054;-69
2021/12/02 07:25:09;;;;;;;11.95;8.10;;;;;;;6.14;52.00;99140.66;1799755;78;21133;-68
2021/12/02 07:27:36;;;;;;;11.68;8.18;;;;;;;6.18;51.98;99136.41;1799606;78;21030;-72
2021/12/02 07:30:06;;;;;;;9.75;7.70;;;;;;;6.22;51.94;99146.78;1799609;78;21092;-69
2021/12/02 07:32:39;;;;;;;10.55;7.37;;;;;;;6.26;51.86;99134.58;1799440;78;21132;-70
2021/12/02 07:35:12;;;;;;;10.60;6.83;;;;;;;6.32;51.76;99143.34;1830498;77;20996;-70
2021/12/02 07:37:45;;;;;;;10.58;7.33;;;;;;;6.37;51.75;99139.89;1830001;78;21111;-68
2021/12/02 07:40:14;;;;;;;9.85;7.40;;;;;;;6.41;51.73;99136.44;1799849;79;21562;-69
2021/12/02 07:42:40;;;;;;;10.50;7.05;;;;;;;6.46;51.74;99139.11;1799428;79;21006;-69
2021/12/02 07:45:08;;;;;;;10.72;7.58;;;;;;;6.53;51.67;99140.97;1799503;79;21046;-69
2021/12/02 07:47:37;;;;;;;9.95;7.37;;;;;;;6.56;51.59;99127.17;1830001;77;20992;-69
2021/12/02 07:50:06;;;;;;;10.50;7.17;;;;;;;6.62;51.60;99129.84;1816560;78;21059;-68
2021/12/02 07:52:34;;;;;;;9.85;7.22;;;;;;;6.68;51.54;99133.55;1830151;77;20991;-68
2021/12/02 07:55:11;;;;;;;10.85;6.90;;;;;;;6.79;51.33;99128.50;1830166;78;20983;-70
2021/12/02 07:57:35;;;;;;;10.95;6.47;;;;;;;6.85;51.29;99141.77;1828850;77;20999;-68
2021/12/02 08:00:01;;;;;;;11.08;7.30;;;;;;;6.88;51.23;99135.91;1830166;78;20928;-67
2021/12/02 08:02:34;;;;;;;10.48;7.03;;;;;;;6.90;51.14;99132.46;1829372;77;21146;-69
2021/12/02 08:04:59;;;;;;;10.15;7.15;;;;;;;6.90;51.18;99134.58;1799387;79;20956;-69
2021/12/02 08:07:26;;;;;;;8.85;6.53;;;;;;;6.90;51.23;99135.11;1829804;78;21109;-68
2021/12/02 08:09:53;;;;;;;10.72;7.70;;;;;;;6.91;51.23;99132.72;1830114;78;20939;-70
2021/12/02 08:12:21;;;;;;;9.63;6.97;;;;;;;6.97;51.20;99117.84;1829663;77;21066;-70
2021/12/02 08:14:50;;;;;;;10.32;7.87;;;;;;;7.00;51.20;99128.47;1830396;78;21121;-69
2021/12/02 08:17:17;;;;;;;10.00;6.97;;;;;;;7.05;51.17;99125.81;1830012;78;21004;-70
2021/12/02 08:19:44;;;;;;;9.25;6.85;;;;;;;7.02;51.14;99131.66;1830248;77;21071;-69
2021/12/02 08:22:10;;;;;;;9.93;7.15;;;;;;;7.05;51.11;99137.77;1830167;78;21584;-69
2021/12/02 08:24:37;;;;;;;10.35;7.53;;;;;;;7.10;51.27;99136.95;1830122;78;21011;-68
2021/12/02 08:27:04;;;;;;;9.83;7.42;;;;;;;7.16;51.14;99133.22;1799374;79;21153;-67
2021/12/02 08:29:32;;;;;;;10.50;6.70;;;;;;;7.21;51.22;99127.91;1772764;79;20951;-69
2021/12/02 08:32:01;;;;;;;9.93;7.22;;;;;;;7.30;51.16;99132.91;1830145;77;21061;-69
2021/12/02 08:34:28;;;;;;;11.33;7.22;;;;;;;7.34;51.03;99130.00;1829710;78;20984;-70
2021/12/02 08:36:55;;;;;;;11.18;7.58;;;;;;;7.41;50.94;99123.86;1829931;77;21068;-69
2021/12/02 08:39:26;;;;;;;10.20;7.28;;;;;;;7.41;50.85;99126.52;1829894;78;21881;-70
2021/12/02 08:41:54;;;;;;;11.03;7.65;;;;;;;7.42;50.84;99125.44;1830153;77;20944;-68
2021/12/02 08:44:20;;;;;;;10.13;7.22;;;;;;;7.43;50.82;99123.58;1829946;77;20940;-69
2021/12/02 08:46:50;;;;;;;11.48;8.03;;;;;;;7.47;50.75;99129.95;1830212;77;21633;-70
2021/12/02 08:49:20;;;;;;;9.68;7.42;;;;;;;7.48;50.82;99127.55;1816102;77;21001;-69
2021/12/02 08:51:47;;;;;;;12.85;8.53;;;;;;;7.51;50.97;99124.36;1830151;77;21145;-70
2021/12/02 08:54:14;;;;;;;14.55;9.25;;;;;;;7.52;50.94;99124.61;1828354;78;20986;-70
2021/12/02 08:56:40;;;;;;;13.65;9.60;;;;;;;7.53;50.99;99116.89;1815461;78;20983;-69
2021/12/02 08:59:07;;;;;;;12.88;8.88;;;;;;;7.50;51.00;99114.27;1825288;77;21482;-70
2021/12/02 09:01:34;;;;;;;12.15;9.18;;;;;;;7.50;51.24;99122.75;1776773;79;20978;-71
2021/12/02 09:04:04;;;;;;;11.63;9.10;;;;;;;7.50;51.47;99126.23;1767744;81;21132;-70
2021/12/02 09:06:31;;;;;;;12.23;8.60;;;;;;;7.48;51.70;99125.69;1816588;78;20964;-71
2021/12/02 09:08:58;;;;;;;11.53;8.15;;;;;;;7.53;51.83;99123.53;1821611;77;21704;-68
2021/12/02 09:11:29;;;;;;;12.13;8.65;;;;;;;7.57;51.97;99121.95;1817332;78;21742;-69
2021/12/02 09:14:02;;;;;;;12.93;8.90;;;;;;;7.65;52.15;99117.38;1790576;79;21527;-69
2021/12/02 09:16:26;;;;;;;12.10;8.73;;;;;;;7.71;52.32;99118.16;1829927;77;21112;-69
2021/12/02 09:18:54;;;;;;;13.13;9.65;;;;;;;7.78;52.36;99114.67;1779372;79;20975;-69
2021/12/02 09:21:21;;;;;;;14.18;9.23;;;;;;;7.77;52.55;99118.41;1803854;78;20944;-70
2021/12/02 09:23:48;;;;;;;14.78;9.53;;;;;;;7.77;52.59;99113.62;1822701;77;21034;-67
2021/12/02 09:26:14;;;;;;;13.25;9.43;;;;;;;7.72;52.69;99111.23;1781640;79;21562;-67
2021/12/02 09:28:50;;;;;;;14.70;9.63;;;;;;;7.72;52.71;99104.59;1783689;79;21035;-68
2021/12/02 09:31:12;;;;;;;16.05;11.40;;;;;;;7.70;52.85;99097.95;1783478;79;21098;-68
2021/12/02 09:33:39;;;;;;;14.93;10.58;;;;;;;7.69;52.94;99095.83;1768211;79;20987;-69
2021/12/02 09:36:05;;;;;;;13.32;9.90;;;;;;;7.71;53.06;99083.08;1779839;79;20998;-68
2021/12/02 09:38:32;;;;;;;14.53;10.53;;;;;;;7.77;53.02;99083.85;1793107;79;21508;-67
2021/12/02 09:41:02;;;;;;;13.35;9.33;;;;;;;7.72;53.11;99085.98;1770200;79;21190;-67
2021/12/02 09:43:28;;;;;;;12.78;9.05;;;;;;;7.75;53.20;99088.64;1808510;78;21029;-68
2021/12/02 09:45:55;;;;;;;14.43;8.83;;;;;;;7.85;53.18;99082.47;1822130;78;21039;-70
2021/12/02 09:48:21;;;;;;;11.15;8.50;;;;;;;7.89;53.02;99083.50;1790411;79;21486;-67
2021/12/02 09:50:55;;;;;;;8.60;6.65;;;;;;;7.91;53.03;99078.72;1794376;79;21066;-66
2021/12/02 09:53:21;;;;;;;8.25;6.37;;;;;;;7.90;52.98;99073.94;1788826;79;21152;-67
2021/12/02 09:55:55;;;;;;;8.35;6.42;;;;;;;7.92;52.96;99073.65;1791757;79;20951;-67
2021/12/02 09:58:26;;;;;;;10.83;7.20;;;;;;;7.92;52.90;99078.97;1660655;79;9999790;-66
2021/12/02 10:00:54;;;;;;;8.05;6.00;;;;;;;7.91;52.84;99066.22;1779248;79;21096;-66
2021/12/02 10:03:30;;;;;;;9.40;6.83;;;;;;;7.87;52.93;99068.38;1784605;79;21093;-66
2021/12/02 10:06:17;;;;;;;9.25;6.53;;;;;;;7.83;52.99;99069.47;1821036;77;21533;-67
2021/12/02 10:08:57;;;;;;;10.72;6.78;;;;;;;7.83;53.04;99061.50;1804883;78;21043;-68
2021/12/02 10:11:56;;;;;;;9.78;6.87;;;;;;;7.82;53.08;99053.78;1817328;78;21177;-66
2021/12/02 10:14:42;;;;;;;12.03;7.60;;;;;;;7.78;53.12;99048.76;1822478;78;21010;-67
2021/12/02 10:17:18;;;;;;;10.15;7.08;;;;;;;7.75;53.20;99057.53;1816251;78;21161;-68
2021/12/02 10:20:50;;;;;;;11.12;7.87;;;;;;;7.73;53.33;99058.36;1816022;77;22123;-66
2021/12/02 10:22:35;;;;;;;12.03;8.78;;;;;;;7.77;53.36;99060.47;1767261;79;21050;-66
2021/12/02 10:25:02;;;;;;;14.25;9.63;;;;;;;7.76;53.35;99064.97;1818674;78;21038;-67
2021/12/02 10:27:28;;;;;;;12.43;8.58;;;;;;;7.79;53.41;99064.42;1827040;78;20951;-66
2021/12/02 10:29:55;;;;;;;12.88;8.78;;;;;;;7.83;53.40;99063.33;1796563;79;21095;-69
2021/12/02 10:32:25;;;;;;;11.75;8.90;;;;;;;7.86;53.35;99063.58;1794333;79;21127;-65
2021/12/02 10:34:57;;;;;;;10.93;8.33;;;;;;;7.86;53.36;99069.43;1789032;79;21561;-65
2021/12/02 10:37:30;;;;;;;11.90;9.40;;;;;;;7.90;53.33;99066.50;1767227;80;21055;-65
2021/12/02 10:40:05;;;;;;;11.53;8.55;;;;;;;7.91;53.38;99058.78;1805150;78;21018;-66
2021/12/02 10:42:34;;;;;;;12.53;8.90;;;;;;;7.90;53.50;99059.86;1825316;78;21101;-64
2021/12/02 10:45:03;;;;;;;13.35;9.80;;;;;;;7.94;53.53;99048.92;1775213;79;21214;-70
2021/12/02 10:47:30;;;;;;;13.43;9.95;;;;;;;7.98;53.54;99054.73;1796031;79;21607;-70
2021/12/02 10:50:06;;;;;;;13.25;10.00;;;;;;;8.02;53.44;99048.33;1795837;79;21603;-68
2021/12/02 10:52:34;;;;;;;17.60;13.08;;;;;;;8.04;53.44;99056.83;1778748;79;21024;-69
2021/12/02 10:55:07;;;;;;;12.33;9.50;;;;;;;8.09;53.44;99051.45;1797172;79;20939;-68
2021/12/02 10:57:38;;;;;;;14.38;10.80;;;;;;;8.15;53.39;99058.88;1773348;79;21050;-69
2021/12/02 11:00:12;;;;;;;14.55;11.10;;;;;;;8.14;53.22;99044.78;1777894;79;21046;-68
2021/12/02 11:02:49;;;;;;;14.18;10.35;;;;;;;8.16;53.25;99051.97;1764128;81;21646;-69
2021/12/02 11:05:35;;;;;;;12.13;9.03;;;;;;;8.16;53.26;99040.50;1810213;78;21523;-70
2021/12/02 11:08:07;;;;;;;11.60;8.33;;;;;;;8.22;53.28;99040.19;1801887;78;22021;-69
2021/12/02 11:10:41;;;;;;;10.03;7.53;;;;;;;8.30;53.29;99032.16;1823058;78;21004;-69
2021/12/02 11:13:11;;;;;;;11.97;9.00;;;;;;;8.39;53.20;99020.39;1816736;78;21030;-69
2021/12/02 11:15:39;;;;;;;12.82;8.98;;;;;;;8.46;52.90;99018.23;1814746;78;21049;-69
2021/12/02 11:18:11;;;;;;;11.08;7.78;;;;;;;8.43;52.99;99012.92;1775423;79;21129;-68
2021/12/02 11:20:47;;;;;;;9.88;7.33;;;;;;;8.48;52.95;99014.73;1748761;81;21782;-69
2021/12/02 11:23:24;;;;;;;10.58;7.65;;;;;;;8.53;52.79;99009.38;1817370;78;21030;-68
2021/12/02 11:26:01;;;;;;;13.75;8.28;;;;;;;8.63;52.77;99013.27;1806946;78;21066;-70
2021/12/02 11:28:33;;;;;;;10.75;7.70;;;;;;;8.68;52.56;99025.17;1782229;79;21097;-70
2021/12/02 11:31:14;;;;;;;9.95;7.25;;;;;;;8.76;52.50;99024.33;1775937;79;21571;-70
2021/12/02 11:33:45;;;;;;;13.98;7.75;;;;;;;8.83;52.42;99024.23;1813928;78;21118;-70
2021/12/02 11:36:25;;;;;;;12.55;8.48;;;;;;;8.86;52.18;99029.54;1819709;78;21003;-71
2021/12/02 11:38:58;;;;;;;11.43;8.15;;;;;;;8.92;51.85;99027.08;1822594;78;21018;-71
2021/12/02 11:41:26;;;;;;;11.70;7.67;;;;;;;8.86;52.05;99025.00;1797529;79;21015;-71
2021/12/02 11:43:53;;;;;;;10.82;7.17;;;;;;;8.91;52.04;99033.46;1765833;81;21040;-69
2021/12/02 11:46:21;;;;;;;11.65;8.13;;;;;;;8.98;52.05;99019.27;1806943;78;21169;-71
2021/12/02 11:48:48;;;;;;;12.05;8.18;;;;;;;9.04;51.90;99032.78;1798021;78;21331;-69
2021/12/02 11:51:18;;;;;;;11.65;7.55;;;;;;;9.08;51.71;99025.02;1826020;77;21050;-68
2021/12/02 11:53:45;;;;;;;14.53;9.20;;;;;;;9.12;51.68;99021.52;1827077;77;21132;-71
2021/12/02 11:56:16;;;;;;;13.83;9.13;;;;;;;9.14;51.58;99023.88;1815030;77;21058;-69
2021/12/02 11:58:44;;;;;;;14.75;10.43;;;;;;;9.19;51.55;99016.39;1825104;77;21473;-69